Time;durP1;ratioP1;P1;durP2;ratioP2;P2;SDS_P1;SDS_P2;PMS_P1;PMS_P2;Temp;Humidity;BMP_temperature;BMP_pressure;BME280_temperature;BME280_humidity;BME280_pressure;Samples;Min_cycle;Max_cycle;Signal;HPM_P1;HPM_P2
2023/11/29 05:52:23;;;;;;;18.00;16.20;;;;;;;9.66;80.36;99570.55;104956;1294;557803;-66
2023/11/29 05:54:50;;;;;;;16.30;14.60;;;;;;;12.00;66.88;99577.23;106356;1266;25342;-65
2023/11/29 05:57:17;;;;;;;16.90;15.20;;;;;;;12.35;64.69;99584.78;106171;1269;25431;-67
2023/11/29 05:59:45;;;;;;;15.40;13.90;;;;;;;12.55;63.64;99584.52;106011;1276;24254;-65
2023/11/29 06:02:12;;;;;;;14.90;13.40;;;;;;;12.71;62.91;99587.90;106366;1269;25606;-66
2023/11/29 06:04:39;;;;;;;15.30;13.80;;;;;;;12.84;62.44;99588.81;105352;1279;1003621;-65
2023/11/29 06:07:06;;;;;;;13.20;11.90;;;;;;;12.98;61.58;99593.71;106332;1263;25402;-65
2023/11/29 06:09:33;;;;;;;12.20;11.10;;;;;;;13.10;60.77;99591.75;106362;1266;25410;-65
2023/11/29 06:12:00;;;;;;;12.20;11.10;;;;;;;13.22;60.21;99596.89;106294;1263;25369;-66
2023/11/29 06:14:28;;;;;;;11.80;10.60;;;;;;;13.33;59.41;99597.89;106320;1267;23514;-66
2023/11/29 06:16:55;;;;;;;11.50;10.40;;;;;;;13.40;58.85;99598.58;106273;1276;25338;-66
2023/11/29 06:19:22;;;;;;;12.20;11.00;;;;;;;13.47;58.36;99604.45;106374;1262;22539;-66
2023/11/29 06:21:49;;;;;;;12.10;10.30;;;;;;;13.54;57.92;99610.55;105800;1272;25398;-66
2023/11/29 06:24:16;;;;;;;11.20;10.10;;;;;;;13.60;57.54;99615.08;106170;1267;25369;-65
2023/11/29 06:26:45;;;;;;;11.60;10.50;;;;;;;13.68;57.12;99613.81;106127;1269;25377;-65
2023/11/29 06:29:12;;;;;;;11.20;10.00;;;;;;;13.74;56.80;99618.34;106321;1266;25418;-65
2023/11/29 06:31:39;;;;;;;11.30;10.20;;;;;;;13.75;56.69;99627.35;106406;1266;25505;-66
2023/11/29 06:34:07;;;;;;;11.00;9.90;;;;;;;13.88;56.21;99637.27;106028;1266;25378;-66
2023/11/29 06:36:34;;;;;;;10.80;9.80;;;;;;;13.97;55.77;99646.27;106342;1263;25354;-66
2023/11/29 06:39:03;;;;;;;10.50;9.60;;;;;;;14.07;55.45;99655.46;106402;1263;25425;-66
2023/11/29 06:41:31;;;;;;;10.70;9.70;;;;;;;14.19;54.86;99667.39;106284;1264;25475;-66
2023/11/29 06:43:58;;;;;;;10.00;9.00;;;;;;;14.25;54.39;99679.23;106376;1272;25395;-66
2023/11/29 06:46:25;;;;;;;10.50;9.50;;;;;;;14.31;54.00;99694.66;106240;1279;25351;-65
2023/11/29 06:48:52;;;;;;;10.10;9.20;;;;;;;14.34;53.75;99695.02;106323;1285;25491;-66
2023/11/29 06:51:20;;;;;;;10.50;9.50;;;;;;;14.35;53.42;99706.99;105928;1285;25363;-66
2023/11/29 06:53:48;;;;;;;9.90;8.90;;;;;;;14.35;53.09;99711.18;106353;1266;25488;-67
2023/11/29 06:56:15;;;;;;;10.60;9.60;;;;;;;14.35;52.94;99724.63;106364;1266;25417;-67
2023/11/29 06:58:42;;;;;;;10.20;9.10;;;;;;;14.34;52.79;99734.08;106362;1266;23181;-68
2023/11/29 07:01:09;;;;;;;9.70;8.80;;;;;;;14.34;52.65;99741.23;106167;1270;25456;-67
2023/11/29 07:03:36;;;;;;;10.80;9.70;;;;;;;14.35;52.45;99753.22;106405;1266;25350;-66
2023/11/29 07:06:04;;;;;;;10.00;9.00;;;;;;;14.31;52.51;99761.80;106340;1266;25350;-67
2023/11/29 07:08:31;;;;;;;10.30;9.30;;;;;;;14.16;52.74;99763.47;106419;1266;22533;-67
2023/11/29 07:11:03;;;;;;;11.40;10.30;;;;;;;14.16;52.71;99770.80;106179;1269;22539;-67
2023/11/29 07:13:31;;;;;;;;;;;;;;;14.15;52.61;99775.02;106395;1266;22507;-68
2023/11/29 07:15:58;;;;;;;9.90;8.90;;;;;;;14.17;52.48;99786.11;106374;1266;25490;-67
2023/11/29 07:18:28;;;;;;;11.60;10.40;;;;;;;14.21;52.38;99795.12;106809;1257;25347;-67
2023/11/29 07:20:56;;;;;;;10.90;9.80;;;;;;;13.88;53.08;99792.98;106818;1264;25421;-67
2023/11/29 07:23:23;;;;;;;11.10;10.00;;;;;;;13.68;53.63;99803.42;106805;1260;25343;-67
2023/11/29 07:25:50;;;;;;;10.90;9.80;;;;;;;13.64;53.72;99813.19;106585;1265;25362;-67
2023/11/29 07:28:17;;;;;;;11.40;9.80;;;;;;;13.65;53.61;99821.15;106512;1263;25359;-67
2023/11/29 07:30:44;;;;;;;10.50;9.20;;;;;;;13.66;53.54;99820.79;106713;1257;25382;-68
2023/11/29 07:33:12;;;;;;;10.20;9.20;;;;;;;13.68;53.63;99826.23;106805;1257;22650;-67
2023/11/29 07:35:39;;;;;;;10.40;9.40;;;;;;;13.70;53.62;99834.33;106689;1263;25421;-67
2023/11/29 07:38:06;;;;;;;10.80;9.60;;;;;;;13.73;53.67;99842.59;106793;1260;25360;-67
2023/11/29 07:40:33;;;;;;;10.30;9.30;;;;;;;13.75;53.52;99851.86;106830;1261;25334;-67
2023/11/29 07:43:00;;;;;;;10.30;9.00;;;;;;;13.76;53.19;99860.54;106746;1263;25504;-67
2023/11/29 07:45:27;;;;;;;10.30;9.20;;;;;;;13.77;53.13;99860.66;106691;1263;25347;-68
2023/11/29 07:47:54;;;;;;;10.40;9.40;;;;;;;13.77;52.98;99866.59;105881;1262;1003135;-67
2023/11/29 07:50:22;;;;;;;10.80;9.80;;;;;;;13.75;52.94;99870.85;106688;1273;25490;-67
2023/11/29 07:52:49;;;;;;;11.10;9.60;;;;;;;13.76;52.92;99880.60;106838;1259;25327;-68
2023/11/29 07:55:16;;;;;;;10.00;9.00;;;;;;;13.77;53.02;99893.77;106796;1263;22513;-68
2023/11/29 07:57:43;;;;;;;10.30;9.30;;;;;;;14.13;52.24;99898.98;106741;1260;25341;-68
2023/11/29 08:00:12;;;;;;;10.70;9.70;;;;;;;14.25;51.85;99912.35;106769;1255;25503;-68
2023/11/29 08:02:41;;;;;;;11.40;10.30;;;;;;;14.10;52.21;99916.89;106634;1257;25481;-68
2023/11/29 08:05:09;;;;;;;10.90;9.90;;;;;;;14.09;52.34;99914.14;106787;1260;25420;-68
2023/11/29 08:07:36;;;;;;;10.80;9.70;;;;;;;13.88;52.97;99914.86;106835;1263;25274;-68
2023/11/29 08:10:07;;;;;;;10.20;9.20;;;;;;;13.68;53.73;99921.08;106107;1257;1002465;-67
2023/11/29 08:12:34;;;;;;;10.00;9.00;;;;;;;13.61;53.84;99924.38;106667;1263;23992;-68
2023/11/29 08:15:01;;;;;;;9.40;8.50;;;;;;;13.60;53.94;99932.91;106684;1260;25351;-67
2023/11/29 08:17:29;;;;;;;10.00;8.90;;;;;;;13.60;53.90;99933.27;106614;1260;22526;-67
2023/11/29 08:19:56;;;;;;;11.00;8.60;;;;;;;13.61;53.94;99934.80;106842;1260;25334;-67
2023/11/29 08:22:23;;;;;;;8.50;7.60;;;;;;;13.63;54.01;99932.65;106762;1260;25354;-68
2023/11/29 08:24:50;;;;;;;7.40;6.60;;;;;;;13.64;54.10;99938.34;106772;1273;24240;-67
2023/11/29 08:27:19;;;;;;;7.40;6.40;;;;;;;13.66;54.02;99952.54;106018;1261;1003332;-67
2023/11/29 08:29:46;;;;;;;7.20;6.50;;;;;;;13.67;53.84;99952.12;106773;1262;25372;-67
2023/11/29 08:32:14;;;;;;;8.10;7.10;;;;;;;13.68;53.73;99953.31;106588;1260;25487;-67
2023/11/29 08:34:41;;;;;;;9.00;7.90;;;;;;;13.68;53.57;99954.01;106564;1260;25426;-67
2023/11/29 08:37:08;;;;;;;8.60;7.20;;;;;;;13.70;53.64;99958.29;106587;1264;25497;-68
2023/11/29 08:39:35;;;;;;;6.80;6.20;;;;;;;13.74;53.51;99963.14;106710;1261;25347;-68
2023/11/29 08:42:03;;;;;;;6.60;6.00;;;;;;;13.76;53.54;99971.22;106810;1257;25484;-68
2023/11/29 08:44:32;;;;;;;6.90;6.20;;;;;;;13.79;53.53;99983.30;106780;1260;22534;-68
2023/11/29 08:46:59;;;;;;;7.50;6.60;;;;;;;13.81;53.47;99988.57;106750;1263;25398;-69
2023/11/29 08:49:26;;;;;;;6.40;5.80;;;;;;;13.83;53.42;99982.89;106761;1276;25420;-68
2023/11/29 08:51:53;;;;;;;7.50;6.70;;;;;;;13.85;53.30;99993.27;106787;1260;25334;-68
2023/11/29 08:54:22;;;;;;;6.90;6.20;;;;;;;13.87;53.25;100001.54;106801;1260;23889;-68
2023/11/29 08:56:50;;;;;;;6.30;5.70;;;;;;;13.91;53.37;100005.02;106744;1259;25376;-68
2023/11/29 08:59:17;;;;;;;6.90;6.00;;;;;;;13.94;53.31;100009.94;106744;1260;25490;-69
2023/11/29 09:01:44;;;;;;;6.40;5.80;;;;;;;14.03;53.08;100020.48;106675;1263;22765;-67
2023/11/29 09:04:11;;;;;;;5.60;5.10;;;;;;;14.07;53.10;100017.52;106834;1260;25807;-68
2023/11/29 09:06:38;;;;;;;5.00;4.60;;;;;;;14.09;53.01;100018.11;106732;1259;25344;-69
2023/11/29 09:09:08;;;;;;;4.30;3.90;;;;;;;14.12;52.65;100025.83;106921;1260;25420;-67
2023/11/29 09:11:35;;;;;;;4.20;3.80;;;;;;;14.14;52.38;100036.19;106503;1263;25421;-68
2023/11/29 09:14:02;;;;;;;4.40;4.00;;;;;;;14.15;51.97;100041.91;106488;1278;25461;-68
2023/11/29 09:16:30;;;;;;;4.50;4.10;;;;;;;14.14;51.86;100052.21;106732;1271;25480;-68
2023/11/29 09:18:58;;;;;;;4.90;4.50;;;;;;;14.17;52.00;100060.77;106681;1257;25392;-69
2023/11/29 09:21:26;;;;;;;5.10;4.60;;;;;;;14.22;51.92;100069.11;106836;1257;25325;-68
2023/11/29 09:23:53;;;;;;;4.80;4.30;;;;;;;14.26;51.44;100071.52;106872;1273;22652;-67
2023/11/29 09:26:21;;;;;;;4.90;4.50;;;;;;;14.30;51.31;100082.20;106808;1273;24231;-67
2023/11/29 09:28:48;;;;;;;4.70;4.30;;;;;;;14.33;51.18;100083.80;106779;1260;25350;-68
2023/11/29 09:31:15;;;;;;;5.30;4.80;;;;;;;14.34;51.10;100086.50;106670;1273;25325;-68
2023/11/29 09:33:43;;;;;;;4.60;4.10;;;;;;;14.40;51.15;100087.30;106780;1261;25372;-68
2023/11/29 09:36:11;;;;;;;5.70;4.60;;;;;;;14.45;51.06;100092.43;106794;1276;25371;-68
2023/11/29 09:38:39;;;;;;;5.10;4.60;;;;;;;14.50;50.91;100095.38;106124;1260;1002964;-68
2023/11/29 09:41:08;;;;;;;4.50;4.10;;;;;;;14.53;50.77;100097.81;106837;1260;25372;-69
2023/11/29 09:43:35;;;;;;;5.10;4.30;;;;;;;14.56;50.60;100102.75;106701;1263;25344;-70
2023/11/29 09:46:02;;;;;;;5.60;4.50;;;;;;;14.58;50.46;100105.27;106699;1260;22524;-67
2023/11/29 09:48:30;;;;;;;5.40;4.80;;;;;;;14.59;50.28;100104.17;106637;1260;25365;-68
2023/11/29 09:50:57;;;;;;;5.20;4.70;;;;;;;14.58;50.23;100110.12;106751;1261;25411;-68
2023/11/29 09:53:26;;;;;;;5.60;4.50;;;;;;;14.59;50.04;100113.60;106597;1281;25372;-68
2023/11/29 09:55:54;;;;;;;4.90;4.50;;;;;;;14.58;49.54;100121.48;106709;1263;25484;-68
2023/11/29 09:58:22;;;;;;;5.40;4.70;;;;;;;14.57;49.51;100123.95;106711;1262;24346;-66
2023/11/29 10:00:49;;;;;;;4.80;4.40;;;;;;;14.57;49.36;100132.89;106612;1260;23263;-66
2023/11/29 10:03:17;;;;;;;5.20;4.70;;;;;;;14.55;49.03;100139.23;106348;1278;25493;-66
2023/11/29 10:05:45;;;;;;;6.00;5.30;;;;;;;14.55;48.96;100143.78;105911;1263;1003457;-66
2023/11/29 10:08:16;;;;;;;5.40;5.00;;;;;;;14.56;49.19;100153.69;106670;1273;25254;-66
2023/11/29 10:10:44;;;;;;;5.90;4.90;;;;;;;14.61;49.10;100164.81;106385;1272;22531;-68
2023/11/29 10:13:12;;;;;;;5.00;4.60;;;;;;;14.65;48.89;100173.36;106712;1273;23208;-68
2023/11/29 10:15:44;;;;;;;5.60;5.00;;;;;;;14.66;48.77;100176.97;106387;1276;25482;-68
2023/11/29 10:18:11;;;;;;;5.80;5.30;;;;;;;14.67;48.88;100181.76;105877;1280;1003744;-68
2023/11/29 10:20:38;;;;;;;5.30;4.80;;;;;;;14.70;48.75;100185.85;106741;1272;25402;-68
2023/11/29 10:23:05;;;;;;;5.20;4.70;;;;;;;14.69;48.48;100187.27;106754;1268;25449;-68
2023/11/29 10:25:32;;;;;;;5.20;4.80;;;;;;;14.72;48.76;100189.48;105638;1273;1002959;-68
2023/11/29 10:27:59;;;;;;;6.40;4.50;;;;;;;14.71;48.92;100198.58;106329;1275;25436;-69
2023/11/29 10:30:26;;;;;;;5.60;5.10;;;;;;;14.67;49.24;100203.44;106851;1263;25366;-68
2023/11/29 10:32:53;;;;;;;5.80;5.20;;;;;;;14.88;48.86;100204.58;106654;1262;25369;-68
2023/11/29 10:35:21;;;;;;;5.10;4.60;;;;;;;14.99;48.66;100202.65;107026;1260;25417;-67
2023/11/29 10:37:56;;;;;;;5.30;4.90;;;;;;;15.06;48.12;100202.29;106814;1257;25242;-68
2023/11/29 10:40:24;;;;;;;5.80;5.20;;;;;;;15.10;47.80;100204.87;106868;1269;25417;-68
2023/11/29 10:42:52;;;;;;;5.60;5.00;;;;;;;15.14;47.90;100208.33;105964;1269;1003068;-66
2023/11/29 10:45:20;;;;;;;6.10;5.60;;;;;;;15.18;47.92;100216.69;106653;1273;22592;-68
2023/11/29 10:48:02;;;;;;;5.40;4.90;;;;;;;15.20;47.65;100227.25;106649;1273;23916;-68
2023/11/29 10:50:31;;;;;;;6.50;5.30;;;;;;;15.20;47.25;100241.21;106496;1273;22652;-68
2023/11/29 10:52:58;;;;;;;6.50;5.80;;;;;;;15.16;46.96;100259.94;106562;1260;25362;-68
2023/11/29 10:55:25;;;;;;;5.80;5.30;;;;;;;15.12;47.08;100268.17;105900;1266;1002992;-68
2023/11/29 10:58:34;;;;;;;5.20;4.80;;;;;;;15.10;46.90;100279.63;106544;1273;25382;-68
2023/11/29 11:01:02;;;;;;;6.90;5.40;;;;;;;15.07;46.51;100283.43;106287;1280;25593;-68
2023/11/29 11:03:43;;;;;;;6.20;5.60;;;;;;;15.04;46.71;100280.80;106164;1269;25337;-69
2023/11/29 11:06:23;;;;;;;6.20;5.60;;;;;;;15.03;46.98;100288.01;106216;1281;24268;-68
2023/11/29 11:08:50;;;;;;;6.30;5.80;;;;;;;15.03;46.62;100293.77;106269;1278;25476;-68
2023/11/29 11:11:58;;;;;;;5.60;5.10;;;;;;;15.01;46.21;100285.82;106259;1266;25464;-68
2023/11/29 11:14:40;;;;;;;6.10;5.50;;;;;;;14.98;45.79;100286.34;105730;1275;22556;-68
2023/11/29 11:17:13;;;;;;;6.50;5.80;;;;;;;14.92;45.49;100291.14;105831;1287;22551;-68
2023/11/29 11:19:41;;;;;;;6.00;5.40;;;;;;;14.87;45.36;100299.78;105845;1285;25480;-70
2023/11/29 11:22:34;;;;;;;5.60;5.10;;;;;;;14.84;45.58;100300.27;105686;1287;25395;-68
2023/11/29 11:25:13;;;;;;;5.90;5.30;;;;;;;14.82;45.36;100309.30;105557;1285;23424;-69
2023/11/29 11:27:45;;;;;;;5.20;4.70;;;;;;;14.81;45.19;100311.42;105906;1279;25339;-69
2023/11/29 11:30:18;;;;;;;9.30;5.20;;;;;;;14.78;44.95;100322.01;105798;1284;22540;-68
2023/11/29 11:32:47;;;;;;;5.90;5.30;;;;;;;14.75;45.02;100320.42;105676;1274;25515;-69
2023/11/29 11:35:17;;;;;;;6.10;5.40;;;;;;;14.73;45.31;100324.89;105787;1274;25407;-68
2023/11/29 11:37:46;;;;;;;5.40;4.90;;;;;;;14.71;45.28;100327.92;105888;1285;25495;-69
2023/11/29 11:40:13;;;;;;;5.50;4.90;;;;;;;14.68;44.74;100337.28;106312;1278;24298;-68
2023/11/29 11:42:40;;;;;;;5.50;5.00;;;;;;;14.68;44.83;100345.87;106327;1283;25383;-68
2023/11/29 11:45:08;;;;;;;6.20;5.60;;;;;;;14.68;44.90;100357.02;106461;1262;25350;-68
2023/11/29 11:47:36;;;;;;;6.70;5.60;;;;;;;14.69;44.85;100370.78;106801;1270;25268;-68
2023/11/29 11:50:04;;;;;;;7.40;6.00;;;;;;;14.71;44.82;100377.36;106681;1263;25417;-68
2023/11/29 11:52:33;;;;;;;6.30;5.70;;;;;;;14.72;44.70;100387.42;106143;1259;1003306;-68
2023/11/29 11:55:05;;;;;;;6.60;5.90;;;;;;;14.71;44.56;100394.28;106699;1276;22647;-69
2023/11/29 11:57:32;;;;;;;;;;;;;;;14.66;44.42;100400.05;106824;1273;22500;-68
2023/11/29 11:59:59;;;;;;;6.20;5.70;;;;;;;14.63;44.57;100399.83;106191;1272;1003767;-68
2023/11/29 12:02:27;;;;;;;6.60;6.00;;;;;;;14.61;44.75;100399.08;106034;1270;1003704;-68
2023/11/29 12:04:54;;;;;;;6.80;5.90;;;;;;;14.60;44.89;100419.71;106808;1260;25350;-68
2023/11/29 12:07:21;;;;;;;6.70;6.00;;;;;;;14.62;45.00;100440.94;106846;1266;25402;-68
2023/11/29 12:09:49;;;;;;;6.70;6.10;;;;;;;14.62;45.22;100467.27;106425;1278;22592;-68
2023/11/29 12:12:16;;;;;;;7.40;6.70;;;;;;;14.65;45.43;100486.70;106976;1259;25287;-69
2023/11/29 12:14:44;;;;;;;6.80;6.20;;;;;;;14.62;45.61;100499.40;106829;1273;25338;-69
2023/11/29 12:17:12;;;;;;;6.70;6.10;;;;;;;14.61;45.66;100493.14;106892;1276;24241;-68
2023/11/29 12:19:42;;;;;;;7.40;6.70;;;;;;;14.69;45.43;100477.11;106840;1270;25372;-66
2023/11/29 12:22:11;;;;;;;7.10;6.50;;;;;;;14.86;44.79;100474.30;106774;1270;22535;-68
2023/11/29 12:24:48;;;;;;;7.20;6.50;;;;;;;14.67;44.92;100483.98;106891;1260;22538;-68
2023/11/29 12:27:19;;;;;;;7.20;6.50;;;;;;;14.96;43.85;100483.77;106810;1270;24234;-68
2023/11/29 12:29:47;;;;;;;7.50;6.80;;;;;;;15.04;43.47;100492.02;106694;1270;25334;-68
2023/11/29 12:32:15;;;;;;;7.10;6.40;;;;;;;15.03;43.39;100502.14;106790;1271;24365;-68
2023/11/29 12:34:43;;;;;;;7.60;6.80;;;;;;;15.01;43.36;100503.85;106907;1260;25233;-68
2023/11/29 12:37:12;;;;;;;8.50;7.60;;;;;;;14.69;43.60;100511.86;106675;1261;22518;-68
2023/11/29 12:39:39;;;;;;;7.80;7.10;;;;;;;14.35;44.32;100506.30;106857;1266;22535;-68
2023/11/29 12:42:06;;;;;;;8.20;7.30;;;;;;;14.25;44.70;100499.71;106844;1260;25455;-68
2023/11/29 12:44:34;;;;;;;8.60;7.80;;;;;;;14.22;44.70;100503.52;106584;1263;25344;-68
2023/11/29 12:47:01;;;;;;;7.50;6.80;;;;;;;14.23;44.46;100511.48;106821;1276;25484;-69
2023/11/29 12:49:29;;;;;;;7.80;7.10;;;;;;;14.39;44.24;100516.58;106769;1278;25405;-68
2023/11/29 12:51:57;;;;;;;8.10;7.30;;;;;;;14.49;44.27;100513.03;106916;1274;22559;-68
2023/11/29 12:54:26;;;;;;;8.30;7.50;;;;;;;14.21;45.22;100512.23;106750;1273;24218;-69
2023/11/29 12:56:55;;;;;;;7.50;6.80;;;;;;;14.32;45.12;100513.41;106919;1270;23889;-69
2023/11/29 12:59:25;;;;;;;9.00;8.20;;;;;;;14.19;45.39;100518.43;107012;1258;25470;-69
2023/11/29 13:01:52;;;;;;;8.50;7.70;;;;;;;14.27;45.23;100518.84;106715;1260;25372;-70
2023/11/29 13:04:19;;;;;;;8.90;8.10;;;;;;;14.17;45.48;100518.36;106772;1260;25452;-68
2023/11/29 13:06:47;;;;;;;8.60;7.80;;;;;;;14.15;45.54;100510.75;105911;1262;1003586;-68
2023/11/29 13:09:15;;;;;;;8.00;7.20;;;;;;;14.14;45.47;100509.08;106006;1276;1003428;-68
2023/11/29 13:11:42;;;;;;;7.90;7.10;;;;;;;14.09;45.37;100516.05;106751;1276;24226;-69
2023/11/29 13:14:09;;;;;;;8.30;7.50;;;;;;;14.04;45.39;100528.47;106855;1268;25493;-68
2023/11/29 13:16:36;;;;;;;8.10;7.30;;;;;;;14.00;45.52;100535.29;106772;1260;25372;-69
2023/11/29 13:19:04;;;;;;;8.00;7.20;;;;;;;13.98;45.36;100530.30;106746;1276;25519;-68
2023/11/29 13:21:32;;;;;;;8.30;7.50;;;;;;;13.94;45.13;100529.39;106952;1260;25372;-68
2023/11/29 13:23:59;;;;;;;8.30;7.30;;;;;;;13.92;45.13;100529.99;107090;1269;24255;-68
2023/11/29 13:26:27;;;;;;;8.60;7.80;;;;;;;13.87;45.09;100535.59;107083;1269;25418;-68
2023/11/29 13:28:54;;;;;;;8.50;7.70;;;;;;;13.83;45.30;100545.17;107057;1254;25490;-68
2023/11/29 13:31:21;;;;;;;9.20;8.20;;;;;;;13.80;45.46;100558.20;107122;1267;25356;-69
2023/11/29 13:33:49;;;;;;;8.30;7.40;;;;;;;13.76;45.67;100571.95;107191;1271;25434;-68
2023/11/29 13:36:16;;;;;;;8.30;7.50;;;;;;;13.73;45.78;100582.54;107064;1267;25366;-68
2023/11/29 13:38:43;;;;;;;9.50;8.60;;;;;;;13.68;45.82;100582.54;107011;1266;25390;-69
2023/11/29 13:41:11;;;;;;;12.10;10.80;;;;;;;13.64;45.92;100579.55;106790;1267;25331;-69
2023/11/29 13:43:39;;;;;;;10.40;9.40;;;;;;;13.58;46.05;100575.92;107179;1267;25338;-69
2023/11/29 13:46:06;;;;;;;9.00;8.20;;;;;;;13.56;46.05;100577.92;107020;1273;24218;-68
2023/11/29 13:48:33;;;;;;;9.60;8.70;;;;;;;13.52;45.92;100590.10;106852;1274;25459;-68
2023/11/29 13:51:01;;;;;;;10.10;9.10;;;;;;;13.49;45.92;100595.63;107082;1270;25825;-68
2023/11/29 13:53:28;;;;;;;13.90;12.00;;;;;;;13.47;46.09;100591.16;107048;1274;25340;-68
2023/11/29 13:55:56;;;;;;;20.50;14.60;;;;;;;13.46;46.09;100592.05;106808;1263;25356;-69
2023/11/29 13:58:23;;;;;;;17.00;14.30;;;;;;;13.45;46.26;100598.02;107133;1255;24211;-68
2023/11/29 14:00:50;;;;;;;22.20;18.40;;;;;;;13.45;46.32;100615.11;107180;1271;24334;-69
2023/11/29 14:03:17;;;;;;;17.30;15.30;;;;;;;13.45;46.26;100638.30;106147;1260;1015776;-68
2023/11/29 14:05:58;;;;;;;15.10;13.30;;;;;;;13.43;46.16;100640.09;107098;1256;25417;-69
2023/11/29 14:08:26;;;;;;;20.90;13.30;;;;;;;13.41;46.04;100642.23;106362;1257;1005653;-68
2023/11/29 14:10:55;;;;;;;15.10;11.70;;;;;;;13.39;46.06;100644.24;106960;1274;22530;-69
2023/11/29 14:13:29;;;;;;;14.90;12.70;;;;;;;13.35;46.11;100646.14;106362;1257;1003769;-68
2023/11/29 14:15:56;;;;;;;14.50;13.10;;;;;;;13.31;46.21;100659.51;106289;1267;1003709;-69
2023/11/29 14:18:23;;;;;;;18.80;16.50;;;;;;;13.26;46.45;100669.61;107108;1267;22582;-68
2023/11/29 14:20:50;;;;;;;19.20;17.20;;;;;;;13.21;46.77;100673.78;106904;1259;25418;-69
2023/11/29 14:23:19;;;;;;;16.40;14.00;;;;;;;13.19;47.02;100679.79;106154;1274;1003291;-68
2023/11/29 14:25:46;;;;;;;12.90;11.40;;;;;;;13.15;46.99;100682.00;107146;1260;25359;-68
2023/11/29 14:28:13;;;;;;;14.40;12.80;;;;;;;13.13;47.00;100692.00;106837;1267;25331;-69
2023/11/29 14:30:41;;;;;;;19.30;17.20;;;;;;;13.11;46.87;100692.09;107067;1270;24264;-69
2023/11/29 14:33:09;;;;;;;23.00;20.50;;;;;;;13.09;46.88;100699.43;107129;1273;25408;-69
2023/11/29 14:35:36;;;;;;;28.90;24.30;;;;;;;13.08;46.95;100706.45;107112;1267;25460;-68
2023/11/29 14:38:03;;;;;;;29.80;24.60;;;;;;;13.05;47.05;100714.52;106818;1260;25363;-69
2023/11/29 14:40:31;;;;;;;23.30;19.00;;;;;;;13.03;47.25;100723.98;106042;1270;1003057;-69
2023/11/29 14:42:59;;;;;;;21.30;18.60;;;;;;;13.01;47.42;100731.68;106795;1269;25338;-69
2023/11/29 14:45:27;;;;;;;18.70;15.90;;;;;;;13.00;47.34;100738.02;106865;1270;22534;-69
2023/11/29 14:47:54;;;;;;;15.10;13.00;;;;;;;12.97;47.32;100736.53;106823;1277;23792;-69
2023/11/29 14:50:21;;;;;;;14.50;13.00;;;;;;;12.97;47.23;100735.13;106813;1271;25430;-69
2023/11/29 14:52:48;;;;;;;44.20;30.30;;;;;;;12.94;47.23;100741.14;106845;1260;25431;-69
2023/11/29 14:55:16;;;;;;;35.40;24.50;;;;;;;12.92;47.13;100751.33;106759;1269;25427;-69
2023/11/29 14:57:44;;;;;;;21.60;16.80;;;;;;;12.92;47.14;100757.95;105992;1260;1002937;-69
2023/11/29 15:00:12;;;;;;;19.40;14.60;;;;;;;12.87;47.27;100757.75;106791;1274;22571;-69
2023/11/29 15:02:40;;;;;;;14.50;12.20;;;;;;;12.81;47.46;100758.80;106920;1274;24267;-69
2023/11/29 15:05:08;;;;;;;12.00;10.60;;;;;;;12.80;47.47;100768.27;106756;1276;25391;-68
2023/11/29 15:07:36;;;;;;;12.00;10.30;;;;;;;12.78;47.40;100766.56;106879;1260;25372;-68
2023/11/29 15:10:05;;;;;;;12.10;10.70;;;;;;;12.71;47.32;100768.17;106775;1277;24282;-68
2023/11/29 15:12:32;;;;;;;14.00;11.80;;;;;;;12.58;47.71;100766.30;106695;1273;22755;-69
2023/11/29 15:14:59;;;;;;;13.50;12.00;;;;;;;12.53;47.96;100762.95;106878;1267;25365;-69
2023/11/29 15:17:26;;;;;;;11.80;10.60;;;;;;;12.48;48.01;100762.77;106639;1274;25385;-69
2023/11/29 15:19:53;;;;;;;10.90;9.80;;;;;;;12.44;47.97;100767.07;106044;1267;1003011;-69
2023/11/29 15:22:21;;;;;;;11.10;10.10;;;;;;;12.40;48.08;100772.42;106714;1267;25370;-70
2023/11/29 15:24:48;;;;;;;10.90;9.80;;;;;;;12.35;48.12;100780.39;107008;1257;24231;-69
2023/11/29 15:27:15;;;;;;;10.90;9.80;;;;;;;12.31;48.15;100786.77;107067;1254;25350;-69
2023/11/29 15:29:42;;;;;;;11.50;10.40;;;;;;;12.28;48.30;100787.55;106764;1277;25335;-69
2023/11/29 15:32:10;;;;;;;13.10;11.90;;;;;;;12.25;48.26;100798.77;106785;1269;25344;-69
2023/11/29 15:34:37;;;;;;;13.90;12.50;;;;;;;12.22;48.33;100802.48;106850;1269;22867;-68
2023/11/29 15:37:05;;;;;;;14.10;12.70;;;;;;;12.21;48.28;100815.20;106902;1266;25405;-68
2023/11/29 15:39:32;;;;;;;13.90;12.40;;;;;;;12.19;48.23;100824.65;106755;1273;25351;-69
2023/11/29 15:41:59;;;;;;;25.00;17.40;;;;;;;12.19;47.86;100841.01;106875;1272;25523;-68
2023/11/29 15:44:26;;;;;;;30.80;19.50;;;;;;;12.20;47.73;100853.32;106595;1276;24224;-69
2023/11/29 15:46:54;;;;;;;27.20;18.90;;;;;;;12.19;47.78;100866.40;106779;1259;25418;-68
2023/11/29 15:49:21;;;;;;;30.70;22.00;;;;;;;12.18;47.90;100868.49;106728;1276;23873;-69
2023/11/29 15:51:48;;;;;;;18.70;15.30;;;;;;;12.18;48.10;100865.90;106142;1275;1002764;-69
2023/11/29 15:54:15;;;;;;;12.60;10.60;;;;;;;12.17;48.15;100874.80;106785;1270;25353;-69
2023/11/29 15:56:43;;;;;;;11.00;9.90;;;;;;;12.16;48.10;100873.42;106176;1269;1002643;-69
2023/11/29 15:59:10;;;;;;;9.80;8.80;;;;;;;12.16;48.15;100871.52;106743;1274;25478;-69
2023/11/29 16:01:37;;;;;;;9.90;9.00;;;;;;;12.15;48.21;100869.46;107011;1257;22547;-68
2023/11/29 16:04:04;;;;;;;10.00;9.10;;;;;;;12.15;48.34;100874.68;106167;1273;1003249;-69
2023/11/29 16:06:32;;;;;;;10.10;9.10;;;;;;;12.14;48.53;100876.61;107091;1273;25379;-69
2023/11/29 16:08:59;;;;;;;10.10;9.20;;;;;;;12.15;48.46;100881.48;107084;1270;25418;-69
2023/11/29 16:11:27;;;;;;;10.30;9.30;;;;;;;12.13;48.46;100891.59;107030;1270;24346;-69
2023/11/29 16:13:54;;;;;;;9.20;8.40;;;;;;;12.12;48.43;100895.44;107074;1274;24400;-69
2023/11/29 16:16:22;;;;;;;9.40;8.50;;;;;;;12.11;48.53;100892.69;107079;1274;25441;-69
2023/11/29 16:18:50;;;;;;;9.70;8.70;;;;;;;12.11;48.61;100886.60;106915;1269;25462;-69
2023/11/29 16:21:17;;;;;;;12.00;10.80;;;;;;;12.10;48.55;100889.75;107153;1264;25449;-69
2023/11/29 16:23:44;;;;;;;12.20;10.90;;;;;;;12.10;48.56;100895.84;107134;1267;25344;-69
2023/11/29 16:26:11;;;;;;;15.10;13.50;;;;;;;12.10;48.65;100904.91;107171;1266;25490;-69
2023/11/29 16:28:39;;;;;;;12.30;11.10;;;;;;;12.10;48.65;100914.11;107057;1273;25378;-69
2023/11/29 16:31:06;;;;;;;11.80;10.70;;;;;;;12.10;48.50;100924.55;107217;1267;25558;-68
2023/11/29 16:33:34;;;;;;;11.80;10.10;;;;;;;12.08;48.36;100931.02;107147;1256;22642;-68
2023/11/29 16:36:01;;;;;;;10.90;9.80;;;;;;;12.05;48.31;100932.14;107107;1267;22543;-68
2023/11/29 16:38:29;;;;;;;10.80;9.70;;;;;;;12.04;48.30;100935.48;107110;1268;25299;-70
2023/11/29 16:40:56;;;;;;;10.60;9.50;;;;;;;12.03;48.28;100945.42;107075;1270;25331;-69
2023/11/29 16:43:24;;;;;;;10.50;9.50;;;;;;;12.01;48.29;100948.23;106990;1267;25420;-69
2023/11/29 16:45:51;;;;;;;9.50;8.60;;;;;;;12.00;48.31;100954.88;107155;1268;25784;-69
2023/11/29 16:48:19;;;;;;;10.30;9.30;;;;;;;11.99;48.18;100956.46;107208;1270;24352;-69
2023/11/29 16:50:46;;;;;;;11.30;10.20;;;;;;;11.97;48.24;100962.77;107187;1269;25328;-69
2023/11/29 16:53:14;;;;;;;10.00;8.80;;;;;;;11.94;48.36;100965.45;106831;1273;25442;-68
2023/11/29 16:55:52;;;;;;;10.70;9.60;;;;;;;11.94;48.34;100965.98;107149;1253;25405;-69
2023/11/29 16:58:19;;;;;;;10.50;9.40;;;;;;;11.93;48.48;100976.96;107133;1262;25347;-68
2023/11/29 17:00:46;;;;;;;10.80;9.70;;;;;;;11.92;48.49;100987.05;107205;1270;22515;-69
2023/11/29 17:03:16;;;;;;;9.80;8.90;;;;;;;11.93;48.39;100995.20;107186;1267;25331;-68
2023/11/29 17:05:43;;;;;;;9.30;8.40;;;;;;;11.93;48.36;100999.90;107176;1263;25359;-68
2023/11/29 17:08:11;;;;;;;9.20;8.30;;;;;;;11.93;48.32;101000.27;107161;1263;25255;-68